Korbel, California
Current Conditions -  °F | °C
As of 5:53 AM on Friday 19 Dec 2014 (Local Time) from KACV Reporting Station
Light Rain Light Rain  
Wind Chill: 52°   Ceiling: 5500
Heat Index: 52°   Visibility: 10mi
Dew Point: 49°   Wind: 7mph
Humidity: 89%   Direction: 150°SSE
Pressure: 30.04"   Gusts: NA
Location:  40.87°N, 123.96°W
Report Text: KACV 191353Z AUTO 15006KT 10SM -RA OVC055 11/09 A3004 RMK AO2 RAB40 SLP177 P0000 T01110094
Loading
Personal Weather Stations






























Interactive Weather Map New forecast layout! Learn more

10-Day Weather Forecast

Advertisements
Track Severe Weather on mobile